This is the latest recevied weather packets stored in our database for station/object KC8JWT. If no packets are shown the sender has not sent any weather packets the latest 1 day(s).
| Time | Temp. | Humidity | Pressure | Rain* | Wind** | Luminosity | Snow |
|---|---|---|---|---|---|---|---|
| 1836274657 | 17.78° C | 74% | 1018.8 hPa | 0 mm | 0 m/s | 0 W/m² | - |
| 1836274510 | 17.78° C | 75% | 1018.7 hPa | 0 mm | 0.45 m/s, 83° | 0 W/m² | - |
| 1836274354 | 17.78° C | 74% | 1018.6 hPa | 0 mm | 0 m/s | 0 W/m² | - |
| 1836274208 | 17.78° C | 74% | 1018.6 hPa | 0 mm | 0 m/s | 0 W/m² | - |
| 1836274053 | 17.78° C | 73% | 1018.5 hPa | 0 mm | 0 m/s | 0 W/m² | - |
| 1778028865 | 20.56° C | 63% | 1007.9 hPa | 0 mm | 0.45 m/s, 160° | 0 W/m² | - |
| 1778028560 | 20.56° C | 63% | 1008 hPa | 0 mm | 0 m/s | 0 W/m² | - |
| 1778028258 | 20.56° C | 62% | 1008 hPa | 0 mm | 1.34 m/s, 167° | 0 W/m² | - |
| 1778027954 | 20.56° C | 62% | 1008.3 hPa | 0 mm | 0.89 m/s, 204° | 0 W/m² | - |
| 1778027650 | 21.11° C | 62% | 1008.2 hPa | 0 mm | 0.89 m/s, 181° | 0 W/m² | - |
| 1778027347 | 21.11° C | 62% | 1008 hPa | 0 mm | 0.89 m/s, 201° | 0 W/m² | - |
| 1778027043 | 21.11° C | 62% | 1008.4 hPa | 0 mm | 1.34 m/s, 171° | 0 W/m² | - |
| 1778026739 | 21.11° C | 62% | 1008.1 hPa | 0 mm | 0.89 m/s, 203° | 1 W/m² | - |
| 1778026436 | 21.11° C | 61% | 1008.2 hPa | 0 mm | 1.34 m/s, 178° | 2 W/m² | - |
| 1778026134 | 21.11° C | 62% | 1008.4 hPa | 0 mm | 0.45 m/s, 164° | 2 W/m² | - |
| 1778025831 | 21.11° C | 62% | 1008.1 hPa | 0 mm | 0.45 m/s, 160° | 3 W/m² | - |
| 1778025527 | 21.11° C | 61% | 1008.4 hPa | 0 mm | 0.45 m/s, 161° | 3 W/m² | - |
| 1778025225 | 21.11° C | 61% | 1008.4 hPa | 0 mm | 0.45 m/s, 162° | 4 W/m² | - |
| 1778024922 | 21.67° C | 61% | 1008.2 hPa | 0 mm | 0.89 m/s, 161° | 8 W/m² | - |
| 1778024620 | 21.67° C | 60% | 1008.2 hPa | 0 mm | 0 m/s | 13 W/m² | - |
| 1778024316 | 21.67° C | 60% | 1008.1 hPa | 0 mm | 2.24 m/s, 213° | 20 W/m² | - |
| 1778024014 | 21.67° C | 61% | 1008.3 hPa | 0 mm | 0.89 m/s, 154° | 17 W/m² | - |
| 1778023711 | 21.67° C | 60% | 1008.6 hPa | 0 mm | 0.89 m/s, 158° | 17 W/m² | - |
| 1778023409 | 21.67° C | 59% | 1008.3 hPa | 0 mm | 2.24 m/s, 237° | 20 W/m² | - |
| 1778023105 | 21.67° C | 60% | 1008.1 hPa | 0 mm | 0.45 m/s, 165° | 19 W/m² | - |
* Rain latest hour (hover to see other rain measurements)
** Current wind speed in m/s (hover to see current wind gust speed)